sensor_id;sensor_type;location;lat;lon;timestamp;P1;durP1;ratioP1;P2;durP2;ratioP2
80127;SDS011;69440;52.118;5.408;2023-05-01T00:01:03;2.72;;;1.48;;
80127;SDS011;69440;52.118;5.408;2023-05-01T00:03:31;4.00;;;1.67;;
80127;SDS011;69440;52.118;5.408;2023-05-01T00:05:59;2.13;;;1.50;;
80127;SDS011;69440;52.118;5.408;2023-05-01T00:08:26;4.20;;;1.95;;
80127;SDS011;69440;52.118;5.408;2023-05-01T00:10:53;4.03;;;2.13;;
80127;SDS011;69440;52.118;5.408;2023-05-01T00:13:19;2.63;;;1.58;;
80127;SDS011;69440;52.118;5.408;2023-05-01T00:15:48;3.10;;;2.03;;
80127;SDS011;69440;52.118;5.408;2023-05-01T00:18:15;4.68;;;2.08;;
80127;SDS011;69440;52.118;5.408;2023-05-01T00:20:42;2.47;;;1.90;;
80127;SDS011;69440;52.118;5.408;2023-05-01T00:23:08;5.03;;;2.05;;
80127;SDS011;69440;52.118;5.408;2023-05-01T00:25:34;3.00;;;1.73;;
80127;SDS011;69440;52.118;5.408;2023-05-01T00:28:01;4.00;;;1.95;;
80127;SDS011;69440;52.118;5.408;2023-05-01T00:30:28;3.35;;;1.65;;
80127;SDS011;69440;52.118;5.408;2023-05-01T00:32:54;3.70;;;2.08;;
80127;SDS011;69440;52.118;5.408;2023-05-01T00:35:21;3.72;;;1.60;;
80127;SDS011;69440;52.118;5.408;2023-05-01T00:37:47;11.88;;;2.53;;
80127;SDS011;69440;52.118;5.408;2023-05-01T00:40:14;3.60;;;2.13;;
80127;SDS011;69440;52.118;5.408;2023-05-01T00:42:40;3.88;;;1.90;;
80127;SDS011;69440;52.118;5.408;2023-05-01T00:45:07;4.15;;;1.95;;
80127;SDS011;69440;52.118;5.408;2023-05-01T00:47:36;5.80;;;2.00;;
80127;SDS011;69440;52.118;5.408;2023-05-01T00:50:04;3.75;;;1.95;;
80127;SDS011;69440;52.118;5.408;2023-05-01T00:52:31;3.28;;;1.95;;
80127;SDS011;69440;52.118;5.408;2023-05-01T00:54:57;2.85;;;2.03;;
80127;SDS011;69440;52.118;5.408;2023-05-01T00:57:24;3.72;;;2.10;;
80127;SDS011;69440;52.118;5.408;2023-05-01T00:59:51;2.20;;;1.77;;
80127;SDS011;69440;52.118;5.408;2023-05-01T01:02:17;2.85;;;2.00;;
80127;SDS011;69440;52.118;5.408;2023-05-01T01:04:44;3.28;;;2.25;;
80127;SDS011;69440;52.118;5.408;2023-05-01T01:09:54;2.90;;;1.88;;
80127;SDS011;69440;52.118;5.408;2023-05-01T01:15:12;2.63;;;1.90;;
80127;SDS011;69440;52.118;5.408;2023-05-01T01:17:51;2.78;;;1.80;;
80127;SDS011;69440;52.118;5.408;2023-05-01T01:20:36;3.05;;;1.98;;
80127;SDS011;69440;52.118;5.408;2023-05-01T01:26:02;3.72;;;2.10;;
80127;SDS011;69440;52.118;5.408;2023-05-01T01:31:25;4.03;;;2.00;;
80127;SDS011;69440;52.118;5.408;2023-05-01T01:33:59;3.63;;;2.38;;
80127;SDS011;69440;52.118;5.408;2023-05-01T01:39:04;4.03;;;2.35;;
80127;SDS011;69440;52.118;5.408;2023-05-01T01:41:33;4.18;;;2.20;;
80127;SDS011;69440;52.118;5.408;2023-05-01T01:44:08;4.25;;;2.53;;
80127;SDS011;69440;52.118;5.408;2023-05-01T01:46:41;3.83;;;2.30;;
80127;SDS011;69440;52.118;5.408;2023-05-01T01:49:10;5.15;;;2.35;;
80127;SDS011;69440;52.118;5.408;2023-05-01T01:51:44;4.95;;;2.30;;
80127;SDS011;69440;52.118;5.408;2023-05-01T01:54:12;5.95;;;2.20;;
80127;SDS011;69440;52.118;5.408;2023-05-01T01:56:43;4.75;;;1.92;;
80127;SDS011;69440;52.118;5.408;2023-05-01T01:59:11;4.15;;;2.10;;
80127;SDS011;69440;52.118;5.408;2023-05-01T02:01:40;4.68;;;1.83;;
80127;SDS011;69440;52.118;5.408;2023-05-01T02:04:08;2.75;;;2.13;;
80127;SDS011;69440;52.118;5.408;2023-05-01T02:06:36;3.50;;;2.28;;
80127;SDS011;69440;52.118;5.408;2023-05-01T02:09:04;4.70;;;2.20;;
80127;SDS011;69440;52.118;5.408;2023-05-01T02:11:32;4.13;;;2.05;;
80127;SDS011;69440;52.118;5.408;2023-05-01T02:14:01;2.75;;;2.10;;
80127;SDS011;69440;52.118;5.408;2023-05-01T02:16:32;4.40;;;2.15;;
80127;SDS011;69440;52.118;5.408;2023-05-01T02:18:59;4.35;;;2.00;;
80127;SDS011;69440;52.118;5.408;2023-05-01T02:21:27;2.25;;;1.63;;
80127;SDS011;69440;52.118;5.408;2023-05-01T02:23:56;4.40;;;2.22;;
80127;SDS011;69440;52.118;5.408;2023-05-01T02:26:26;4.30;;;2.53;;
80127;SDS011;69440;52.118;5.408;2023-05-01T02:28:54;4.32;;;2.22;;
80127;SDS011;69440;52.118;5.408;2023-05-01T02:31:21;4.43;;;2.03;;
80127;SDS011;69440;52.118;5.408;2023-05-01T02:33:48;3.63;;;2.53;;
80127;SDS011;69440;52.118;5.408;2023-05-01T02:36:14;3.65;;;1.90;;
80127;SDS011;69440;52.118;5.408;2023-05-01T02:38:41;2.92;;;1.98;;
80127;SDS011;69440;52.118;5.408;2023-05-01T02:41:07;3.70;;;2.20;;
80127;SDS011;69440;52.118;5.408;2023-05-01T02:43:36;4.97;;;2.33;;
80127;SDS011;69440;52.118;5.408;2023-05-01T02:46:05;3.33;;;2.30;;
80127;SDS011;69440;52.118;5.408;2023-05-01T02:48:32;5.15;;;2.58;;
80127;SDS011;69440;52.118;5.408;2023-05-01T02:51:00;4.57;;;2.17;;
80127;SDS011;69440;52.118;5.408;2023-05-01T02:53:29;4.38;;;2.00;;
80127;SDS011;69440;52.118;5.408;2023-05-01T02:55:56;4.40;;;1.83;;
80127;SDS011;69440;52.118;5.408;2023-05-01T02:58:22;4.15;;;2.63;;
80127;SDS011;69440;52.118;5.408;2023-05-01T03:00:49;3.85;;;2.22;;
80127;SDS011;69440;52.118;5.408;2023-05-01T03:03:16;4.13;;;2.10;;
80127;SDS011;69440;52.118;5.408;2023-05-01T03:05:42;2.92;;;2.00;;
80127;SDS011;69440;52.118;5.408;2023-05-01T03:08:09;5.18;;;2.42;;
80127;SDS011;69440;52.118;5.408;2023-05-01T03:10:38;4.25;;;2.28;;
80127;SDS011;69440;52.118;5.408;2023-05-01T03:13:07;5.95;;;2.03;;
80127;SDS011;69440;52.118;5.408;2023-05-01T03:15:36;3.80;;;1.90;;
80127;SDS011;69440;52.118;5.408;2023-05-01T03:18:03;4.10;;;2.08;;
80127;SDS011;69440;52.118;5.408;2023-05-01T03:20:30;3.45;;;1.90;;
80127;SDS011;69440;52.118;5.408;2023-05-01T03:22:57;3.78;;;2.33;;
80127;SDS011;69440;52.118;5.408;2023-05-01T03:25:24;3.72;;;2.42;;
80127;SDS011;69440;52.118;5.408;2023-05-01T03:27:50;4.30;;;2.55;;
80127;SDS011;69440;52.118;5.408;2023-05-01T03:30:20;5.80;;;2.55;;
80127;SDS011;69440;52.118;5.408;2023-05-01T03:32:46;4.00;;;2.60;;
80127;SDS011;69440;52.118;5.408;2023-05-01T03:35:13;3.85;;;2.30;;
80127;SDS011;69440;52.118;5.408;2023-05-01T03:37:39;5.07;;;2.55;;
80127;SDS011;69440;52.118;5.408;2023-05-01T03:40:06;3.92;;;2.30;;
80127;SDS011;69440;52.118;5.408;2023-05-01T03:42:32;5.40;;;2.58;;
80127;SDS011;69440;52.118;5.408;2023-05-01T03:44:59;4.13;;;2.15;;
80127;SDS011;69440;52.118;5.408;2023-05-01T03:47:25;3.42;;;2.50;;
80127;SDS011;69440;52.118;5.408;2023-05-01T03:49:52;3.10;;;2.13;;
80127;SDS011;69440;52.118;5.408;2023-05-01T03:52:19;3.47;;;2.03;;
80127;SDS011;69440;52.118;5.408;2023-05-01T03:54:45;5.25;;;2.50;;
80127;SDS011;69440;52.118;5.408;2023-05-01T03:57:12;4.47;;;2.58;;
80127;SDS011;69440;52.118;5.408;2023-05-01T03:59:39;4.72;;;2.47;;
80127;SDS011;69440;52.118;5.408;2023-05-01T04:02:08;8.02;;;2.38;;
80127;SDS011;69440;52.118;5.408;2023-05-01T04:04:35;7.72;;;2.28;;
80127;SDS011;69440;52.118;5.408;2023-05-01T04:07:01;5.30;;;2.92;;
80127;SDS011;69440;52.118;5.408;2023-05-01T04:09:28;5.80;;;2.88;;
80127;SDS011;69440;52.118;5.408;2023-05-01T04:11:57;6.95;;;2.60;;
80127;SDS011;69440;52.118;5.408;2023-05-01T04:14:24;4.95;;;2.50;;
80127;SDS011;69440;52.118;5.408;2023-05-01T04:16:50;4.78;;;2.60;;
80127;SDS011;69440;52.118;5.408;2023-05-01T04:19:17;4.30;;;2.10;;
80127;SDS011;69440;52.118;5.408;2023-05-01T04:21:43;4.07;;;2.10;;
80127;SDS011;69440;52.118;5.408;2023-05-01T04:24:10;5.15;;;2.97;;
80127;SDS011;69440;52.118;5.408;2023-05-01T04:26:36;5.10;;;2.38;;
80127;SDS011;69440;52.118;5.408;2023-05-01T04:29:04;3.95;;;2.70;;
80127;SDS011;69440;52.118;5.408;2023-05-01T04:31:30;3.70;;;2.42;;
80127;SDS011;69440;52.118;5.408;2023-05-01T04:33:57;7.45;;;2.72;;
80127;SDS011;69440;52.118;5.408;2023-05-01T04:36:23;6.25;;;3.10;;
80127;SDS011;69440;52.118;5.408;2023-05-01T04:38:50;6.03;;;2.80;;
80127;SDS011;69440;52.118;5.408;2023-05-01T04:41:16;4.18;;;2.53;;
80127;SDS011;69440;52.118;5.408;2023-05-01T04:43:43;3.42;;;2.10;;
80127;SDS011;69440;52.118;5.408;2023-05-01T04:46:09;5.00;;;2.42;;
80127;SDS011;69440;52.118;5.408;2023-05-01T04:48:36;3.10;;;2.03;;
80127;SDS011;69440;52.118;5.408;2023-05-01T04:51:02;3.78;;;2.40;;
80127;SDS011;69440;52.118;5.408;2023-05-01T04:53:29;3.60;;;2.17;;
80127;SDS011;69440;52.118;5.408;2023-05-01T04:55:56;4.90;;;2.60;;
80127;SDS011;69440;52.118;5.408;2023-05-01T04:58:22;7.63;;;2.45;;
80127;SDS011;69440;52.118;5.408;2023-05-01T05:00:49;4.13;;;2.70;;
80127;SDS011;69440;52.118;5.408;2023-05-01T05:03:15;5.07;;;2.63;;
80127;SDS011;69440;52.118;5.408;2023-05-01T05:05:44;6.45;;;3.08;;
80127;SDS011;69440;52.118;5.408;2023-05-01T05:08:13;4.63;;;2.60;;
80127;SDS011;69440;52.118;5.408;2023-05-01T05:10:39;5.13;;;2.95;;
80127;SDS011;69440;52.118;5.408;2023-05-01T05:13:06;5.25;;;2.55;;
80127;SDS011;69440;52.118;5.408;2023-05-01T05:15:32;6.80;;;2.95;;
80127;SDS011;69440;52.118;5.408;2023-05-01T05:17:59;4.72;;;2.70;;
80127;SDS011;69440;52.118;5.408;2023-05-01T05:20:25;5.15;;;2.58;;
80127;SDS011;69440;52.118;5.408;2023-05-01T05:22:51;5.40;;;2.70;;
80127;SDS011;69440;52.118;5.408;2023-05-01T05:25:18;8.57;;;2.78;;
80127;SDS011;69440;52.118;5.408;2023-05-01T05:27:44;5.28;;;2.88;;
80127;SDS011;69440;52.118;5.408;2023-05-01T05:30:11;5.25;;;3.30;;
80127;SDS011;69440;52.118;5.408;2023-05-01T05:32:37;4.90;;;2.83;;
80127;SDS011;69440;52.118;5.408;2023-05-01T05:35:04;5.40;;;2.92;;
80127;SDS011;69440;52.118;5.408;2023-05-01T05:37:31;6.35;;;3.47;;
80127;SDS011;69440;52.118;5.408;2023-05-01T05:39:58;6.78;;;3.03;;
80127;SDS011;69440;52.118;5.408;2023-05-01T05:42:24;8.07;;;3.40;;
80127;SDS011;69440;52.118;5.408;2023-05-01T05:44:51;6.22;;;3.13;;
80127;SDS011;69440;52.118;5.408;2023-05-01T05:47:18;6.38;;;3.33;;
80127;SDS011;69440;52.118;5.408;2023-05-01T05:49:44;8.30;;;3.47;;
80127;SDS011;69440;52.118;5.408;2023-05-01T05:52:11;5.80;;;3.15;;
80127;SDS011;69440;52.118;5.408;2023-05-01T05:54:37;5.97;;;2.95;;
80127;SDS011;69440;52.118;5.408;2023-05-01T05:57:03;6.70;;;3.55;;
80127;SDS011;69440;52.118;5.408;2023-05-01T05:59:30;6.18;;;3.22;;
80127;SDS011;69440;52.118;5.408;2023-05-01T06:01:56;6.93;;;3.40;;
80127;SDS011;69440;52.118;5.408;2023-05-01T06:04:23;6.15;;;3.80;;
80127;SDS011;69440;52.118;5.408;2023-05-01T06:06:49;6.93;;;3.33;;
80127;SDS011;69440;52.118;5.408;2023-05-01T06:09:16;7.82;;;3.28;;
80127;SDS011;69440;52.118;5.408;2023-05-01T06:11:45;6.60;;;3.20;;
80127;SDS011;69440;52.118;5.408;2023-05-01T06:14:11;7.22;;;3.65;;
80127;SDS011;69440;52.118;5.408;2023-05-01T06:16:37;6.80;;;3.30;;
80127;SDS011;69440;52.118;5.408;2023-05-01T06:19:04;6.53;;;3.08;;
80127;SDS011;69440;52.118;5.408;2023-05-01T06:21:31;5.43;;;3.00;;
80127;SDS011;69440;52.118;5.408;2023-05-01T06:23:58;5.97;;;3.30;;
80127;SDS011;69440;52.118;5.408;2023-05-01T06:26:25;7.05;;;3.47;;
80127;SDS011;69440;52.118;5.408;2023-05-01T06:28:53;7.32;;;3.40;;
80127;SDS011;69440;52.118;5.408;2023-05-01T06:31:20;5.80;;;3.00;;
80127;SDS011;69440;52.118;5.408;2023-05-01T06:33:46;8.88;;;3.55;;
80127;SDS011;69440;52.118;5.408;2023-05-01T06:36:12;6.82;;;3.30;;
80127;SDS011;69440;52.118;5.408;2023-05-01T06:38:39;8.52;;;3.13;;
80127;SDS011;69440;52.118;5.408;2023-05-01T06:41:07;5.80;;;3.05;;
80127;SDS011;69440;52.118;5.408;2023-05-01T06:43:33;6.25;;;3.28;;
80127;SDS011;69440;52.118;5.408;2023-05-01T06:46:00;5.97;;;3.47;;
80127;SDS011;69440;52.118;5.408;2023-05-01T06:48:26;6.57;;;3.78;;
80127;SDS011;69440;52.118;5.408;2023-05-01T06:50:53;7.65;;;3.30;;
80127;SDS011;69440;52.118;5.408;2023-05-01T06:53:21;11.73;;;3.67;;
80127;SDS011;69440;52.118;5.408;2023-05-01T06:55:47;8.65;;;3.38;;
80127;SDS011;69440;52.118;5.408;2023-05-01T06:58:13;6.07;;;3.10;;
80127;SDS011;69440;52.118;5.408;2023-05-01T07:00:49;8.82;;;3.58;;
80127;SDS011;69440;52.118;5.408;2023-05-01T07:03:16;8.00;;;3.97;;
80127;SDS011;69440;52.118;5.408;2023-05-01T07:05:42;6.35;;;3.45;;
80127;SDS011;69440;52.118;5.408;2023-05-01T07:08:09;6.43;;;3.38;;
80127;SDS011;69440;52.118;5.408;2023-05-01T07:10:35;9.60;;;3.58;;
80127;SDS011;69440;52.118;5.408;2023-05-01T07:13:03;9.57;;;4.00;;
80127;SDS011;69440;52.118;5.408;2023-05-01T07:15:29;5.47;;;2.88;;
80127;SDS011;69440;52.118;5.408;2023-05-01T07:17:56;5.72;;;3.45;;
80127;SDS011;69440;52.118;5.408;2023-05-01T07:20:23;6.93;;;3.40;;
80127;SDS011;69440;52.118;5.408;2023-05-01T07:22:49;8.85;;;3.80;;
80127;SDS011;69440;52.118;5.408;2023-05-01T07:25:16;7.28;;;3.35;;
80127;SDS011;69440;52.118;5.408;2023-05-01T07:27:43;5.60;;;3.22;;
80127;SDS011;69440;52.118;5.408;2023-05-01T07:30:09;8.20;;;3.63;;
80127;SDS011;69440;52.118;5.408;2023-05-01T07:32:36;8.68;;;4.07;;
80127;SDS011;69440;52.118;5.408;2023-05-01T07:35:03;6.35;;;3.80;;
80127;SDS011;69440;52.118;5.408;2023-05-01T07:37:30;9.20;;;4.18;;
80127;SDS011;69440;52.118;5.408;2023-05-01T07:39:56;7.60;;;3.67;;
80127;SDS011;69440;52.118;5.408;2023-05-01T07:42:25;6.68;;;3.40;;
80127;SDS011;69440;52.118;5.408;2023-05-01T07:44:52;7.43;;;3.60;;
80127;SDS011;69440;52.118;5.408;2023-05-01T07:47:18;6.72;;;3.65;;
80127;SDS011;69440;52.118;5.408;2023-05-01T07:49:45;8.68;;;3.90;;
80127;SDS011;69440;52.118;5.408;2023-05-01T07:52:11;6.57;;;3.70;;
80127;SDS011;69440;52.118;5.408;2023-05-01T07:54:38;6.28;;;3.58;;
80127;SDS011;69440;52.118;5.408;2023-05-01T07:57:07;7.07;;;3.83;;
80127;SDS011;69440;52.118;5.408;2023-05-01T07:59:34;9.57;;;3.90;;
80127;SDS011;69440;52.118;5.408;2023-05-01T08:02:00;7.38;;;3.42;;
80127;SDS011;69440;52.118;5.408;2023-05-01T08:04:26;6.95;;;3.63;;
80127;SDS011;69440;52.118;5.408;2023-05-01T08:06:53;8.38;;;4.32;;
80127;SDS011;69440;52.118;5.408;2023-05-01T08:09:19;11.05;;;4.15;;
80127;SDS011;69440;52.118;5.408;2023-05-01T08:11:46;7.47;;;3.80;;
80127;SDS011;69440;52.118;5.408;2023-05-01T08:14:12;5.70;;;3.78;;
80127;SDS011;69440;52.118;5.408;2023-05-01T08:16:40;6.65;;;3.80;;
80127;SDS011;69440;52.118;5.408;2023-05-01T08:19:07;8.43;;;3.83;;
80127;SDS011;69440;52.118;5.408;2023-05-01T08:21:33;10.63;;;4.10;;
80127;SDS011;69440;52.118;5.408;2023-05-01T08:23:59;8.02;;;4.00;;
80127;SDS011;69440;52.118;5.408;2023-05-01T08:26:26;8.77;;;4.45;;
80127;SDS011;69440;52.118;5.408;2023-05-01T08:28:52;7.88;;;4.70;;
80127;SDS011;69440;52.118;5.408;2023-05-01T08:31:19;6.18;;;3.53;;
80127;SDS011;69440;52.118;5.408;2023-05-01T08:33:46;6.03;;;4.07;;
80127;SDS011;69440;52.118;5.408;2023-05-01T08:36:12;6.55;;;4.28;;
80127;SDS011;69440;52.118;5.408;2023-05-01T08:38:39;9.57;;;3.80;;
80127;SDS011;69440;52.118;5.408;2023-05-01T08:41:05;10.85;;;3.97;;
80127;SDS011;69440;52.118;5.408;2023-05-01T08:43:33;5.57;;;3.30;;
80127;SDS011;69440;52.118;5.408;2023-05-01T08:46:00;6.97;;;4.05;;
80127;SDS011;69440;52.118;5.408;2023-05-01T08:48:28;8.02;;;3.67;;
80127;SDS011;69440;52.118;5.408;2023-05-01T08:50:55;7.90;;;4.05;;
80127;SDS011;69440;52.118;5.408;2023-05-01T08:53:25;5.78;;;3.40;;
80127;SDS011;69440;52.118;5.408;2023-05-01T08:55:52;9.30;;;3.40;;
80127;SDS011;69440;52.118;5.408;2023-05-01T08:58:22;9.27;;;3.95;;
80127;SDS011;69440;52.118;5.408;2023-05-01T09:00:49;8.55;;;3.92;;
80127;SDS011;69440;52.118;5.408;2023-05-01T09:03:16;9.00;;;3.85;;
80127;SDS011;69440;52.118;5.408;2023-05-01T09:05:44;6.85;;;4.63;;
80127;SDS011;69440;52.118;5.408;2023-05-01T09:08:11;7.18;;;3.65;;
80127;SDS011;69440;52.118;5.408;2023-05-01T09:10:38;10.98;;;4.20;;
80127;SDS011;69440;52.118;5.408;2023-05-01T09:13:09;6.60;;;4.00;;
80127;SDS011;69440;52.118;5.408;2023-05-01T09:15:36;8.55;;;4.35;;
80127;SDS011;69440;52.118;5.408;2023-05-01T09:18:03;10.98;;;4.30;;
80127;SDS011;69440;52.118;5.408;2023-05-01T09:20:30;7.55;;;3.67;;
80127;SDS011;69440;52.118;5.408;2023-05-01T09:22:57;9.20;;;3.55;;
80127;SDS011;69440;52.118;5.408;2023-05-01T09:25:24;8.15;;;4.15;;
80127;SDS011;69440;52.118;5.408;2023-05-01T09:27:50;6.78;;;3.63;;
80127;SDS011;69440;52.118;5.408;2023-05-01T09:30:33;7.32;;;4.50;;
80127;SDS011;69440;52.118;5.408;2023-05-01T09:35:31;8.00;;;4.57;;
80127;SDS011;69440;52.118;5.408;2023-05-01T09:37:59;7.32;;;3.78;;
80127;SDS011;69440;52.118;5.408;2023-05-01T09:40:25;6.55;;;3.17;;
80127;SDS011;69440;52.118;5.408;2023-05-01T09:42:53;5.88;;;3.38;;
80127;SDS011;69440;52.118;5.408;2023-05-01T09:45:23;10.90;;;3.70;;
80127;SDS011;69440;52.118;5.408;2023-05-01T09:47:51;5.88;;;3.50;;
80127;SDS011;69440;52.118;5.408;2023-05-01T09:50:36;8.35;;;4.22;;
80127;SDS011;69440;52.118;5.408;2023-05-01T09:53:03;6.75;;;4.10;;
80127;SDS011;69440;52.118;5.408;2023-05-01T09:55:31;7.38;;;3.70;;
80127;SDS011;69440;52.118;5.408;2023-05-01T09:57:58;5.97;;;3.28;;
80127;SDS011;69440;52.118;5.408;2023-05-01T10:00:25;7.40;;;3.53;;
80127;SDS011;69440;52.118;5.408;2023-05-01T10:02:52;7.82;;;4.00;;
80127;SDS011;69440;52.118;5.408;2023-05-01T10:05:19;6.32;;;3.55;;
80127;SDS011;69440;52.118;5.408;2023-05-01T10:10:25;7.05;;;2.88;;
80127;SDS011;69440;52.118;5.408;2023-05-01T10:12:52;5.63;;;3.13;;
80127;SDS011;69440;52.118;5.408;2023-05-01T10:15:19;7.15;;;3.50;;
80127;SDS011;69440;52.118;5.408;2023-05-01T10:17:52;7.00;;;3.40;;
80127;SDS011;69440;52.118;5.408;2023-05-01T10:20:19;5.55;;;3.40;;
80127;SDS011;69440;52.118;5.408;2023-05-01T10:22:46;6.78;;;3.47;;
80127;SDS011;69440;52.118;5.408;2023-05-01T10:25:14;6.47;;;3.08;;
80127;SDS011;69440;52.118;5.408;2023-05-01T10:27:42;6.18;;;2.90;;
80127;SDS011;69440;52.118;5.408;2023-05-01T10:30:09;6.60;;;3.75;;
80127;SDS011;69440;52.118;5.408;2023-05-01T10:32:36;8.32;;;3.17;;
80127;SDS011;69440;52.118;5.408;2023-05-01T10:35:13;8.48;;;3.58;;
80127;SDS011;69440;52.118;5.408;2023-05-01T10:37:56;7.15;;;3.63;;
80127;SDS011;69440;52.118;5.408;2023-05-01T10:43:17;7.10;;;2.80;;
80127;SDS011;69440;52.118;5.408;2023-05-01T10:45:46;8.90;;;2.92;;
80127;SDS011;69440;52.118;5.408;2023-05-01T10:53:49;5.55;;;2.72;;
80127;SDS011;69440;52.118;5.408;2023-05-01T10:59:04;7.28;;;3.25;;
80127;SDS011;69440;52.118;5.408;2023-05-01T11:01:32;8.15;;;3.47;;
80127;SDS011;69440;52.118;5.408;2023-05-01T11:04:03;8.45;;;3.00;;
80127;SDS011;69440;52.118;5.408;2023-05-01T11:06:33;7.13;;;2.90;;
80127;SDS011;69440;52.118;5.408;2023-05-01T11:09:01;8.35;;;2.95;;
80127;SDS011;69440;52.118;5.408;2023-05-01T11:11:47;5.78;;;2.58;;
80127;SDS011;69440;52.118;5.408;2023-05-01T11:14:15;4.28;;;2.47;;
80127;SDS011;69440;52.118;5.408;2023-05-01T11:16:41;5.35;;;2.75;;
80127;SDS011;69440;52.118;5.408;2023-05-01T11:19:10;6.15;;;3.15;;
80127;SDS011;69440;52.118;5.408;2023-05-01T11:21:58;5.97;;;2.58;;
80127;SDS011;69440;52.118;5.408;2023-05-01T11:24:31;7.28;;;3.10;;
80127;SDS011;69440;52.118;5.408;2023-05-01T11:26:58;6.70;;;3.85;;
80127;SDS011;69440;52.118;5.408;2023-05-01T11:29:27;5.90;;;3.05;;
80127;SDS011;69440;52.118;5.408;2023-05-01T11:31:57;5.75;;;2.90;;
80127;SDS011;69440;52.118;5.408;2023-05-01T11:34:25;7.97;;;3.00;;
80127;SDS011;69440;52.118;5.408;2023-05-01T11:36:52;5.75;;;2.88;;
80127;SDS011;69440;52.118;5.408;2023-05-01T11:39:18;6.30;;;2.30;;
80127;SDS011;69440;52.118;5.408;2023-05-01T11:41:45;4.15;;;2.50;;
80127;SDS011;69440;52.118;5.408;2023-05-01T11:44:14;6.43;;;2.80;;
80127;SDS011;69440;52.118;5.408;2023-05-01T11:46:41;5.05;;;2.20;;
80127;SDS011;69440;52.118;5.408;2023-05-01T11:49:08;5.22;;;2.30;;
80127;SDS011;69440;52.118;5.408;2023-05-01T11:51:34;4.75;;;3.00;;
80127;SDS011;69440;52.118;5.408;2023-05-01T11:54:04;5.78;;;2.38;;
80127;SDS011;69440;52.118;5.408;2023-05-01T11:56:32;4.75;;;2.65;;
80127;SDS011;69440;52.118;5.408;2023-05-01T11:59:08;5.15;;;2.90;;
80127;SDS011;69440;52.118;5.408;2023-05-01T12:01:39;5.63;;;2.83;;
80127;SDS011;69440;52.118;5.408;2023-05-01T12:04:06;3.72;;;2.55;;
80127;SDS011;69440;52.118;5.408;2023-05-01T12:06:34;7.13;;;2.80;;
80127;SDS011;69440;52.118;5.408;2023-05-01T12:09:05;5.60;;;3.47;;
80127;SDS011;69440;52.118;5.408;2023-05-01T12:11:34;4.97;;;3.38;;
80127;SDS011;69440;52.118;5.408;2023-05-01T12:14:01;5.35;;;3.03;;
80127;SDS011;69440;52.118;5.408;2023-05-01T12:16:29;7.55;;;3.65;;
80127;SDS011;69440;52.118;5.408;2023-05-01T12:18:55;5.78;;;3.42;;
80127;SDS011;69440;52.118;5.408;2023-05-01T12:21:22;6.68;;;3.70;;
80127;SDS011;69440;52.118;5.408;2023-05-01T12:23:50;6.47;;;3.22;;
80127;SDS011;69440;52.118;5.408;2023-05-01T12:26:17;10.70;;;4.10;;
80127;SDS011;69440;52.118;5.408;2023-05-01T12:28:54;9.40;;;4.55;;
80127;SDS011;69440;52.118;5.408;2023-05-01T12:31:22;9.02;;;4.57;;
80127;SDS011;69440;52.118;5.408;2023-05-01T12:34:00;8.32;;;4.20;;
80127;SDS011;69440;52.118;5.408;2023-05-01T12:36:28;9.63;;;4.63;;
80127;SDS011;69440;52.118;5.408;2023-05-01T12:38:57;8.43;;;4.78;;
80127;SDS011;69440;52.118;5.408;2023-05-01T12:41:32;9.35;;;4.97;;
80127;SDS011;69440;52.118;5.408;2023-05-01T12:44:01;8.20;;;5.03;;
80127;SDS011;69440;52.118;5.408;2023-05-01T12:46:28;10.63;;;4.05;;
80127;SDS011;69440;52.118;5.408;2023-05-01T12:48:55;8.85;;;4.30;;
80127;SDS011;69440;52.118;5.408;2023-05-01T12:51:21;8.10;;;4.13;;
80127;SDS011;69440;52.118;5.408;2023-05-01T12:53:48;9.35;;;4.13;;
80127;SDS011;69440;52.118;5.408;2023-05-01T12:56:20;10.45;;;4.25;;
80127;SDS011;69440;52.118;5.408;2023-05-01T12:58:49;9.38;;;4.40;;
80127;SDS011;69440;52.118;5.408;2023-05-01T13:01:23;9.20;;;3.70;;
80127;SDS011;69440;52.118;5.408;2023-05-01T13:03:53;8.18;;;3.92;;
80127;SDS011;69440;52.118;5.408;2023-05-01T13:06:30;5.80;;;3.35;;
80127;SDS011;69440;52.118;5.408;2023-05-01T13:09:09;10.82;;;3.75;;
80127;SDS011;69440;52.118;5.408;2023-05-01T13:11:36;8.10;;;3.65;;
80127;SDS011;69440;52.118;5.408;2023-05-01T13:14:06;7.35;;;3.42;;
80127;SDS011;69440;52.118;5.408;2023-05-01T13:16:43;8.90;;;3.67;;
80127;SDS011;69440;52.118;5.408;2023-05-01T13:19:11;7.55;;;3.42;;
80127;SDS011;69440;52.118;5.408;2023-05-01T13:21:45;8.30;;;3.70;;
80127;SDS011;69440;52.118;5.408;2023-05-01T13:24:15;7.45;;;4.03;;
80127;SDS011;69440;52.118;5.408;2023-05-01T13:26:41;8.30;;;3.88;;
80127;SDS011;69440;52.118;5.408;2023-05-01T13:29:12;7.32;;;3.33;;
80127;SDS011;69440;52.118;5.408;2023-05-01T13:31:43;8.27;;;3.60;;
80127;SDS011;69440;52.118;5.408;2023-05-01T13:34:10;9.45;;;4.18;;
80127;SDS011;69440;52.118;5.408;2023-05-01T13:36:42;8.52;;;3.80;;
80127;SDS011;69440;52.118;5.408;2023-05-01T13:39:09;7.78;;;3.85;;
80127;SDS011;69440;52.118;5.408;2023-05-01T13:41:36;9.52;;;4.10;;
80127;SDS011;69440;52.118;5.408;2023-05-01T13:44:07;8.85;;;4.40;;
80127;SDS011;69440;52.118;5.408;2023-05-01T13:46:33;11.25;;;4.13;;
80127;SDS011;69440;52.118;5.408;2023-05-01T13:49:02;9.05;;;4.07;;
80127;SDS011;69440;52.118;5.408;2023-05-01T13:51:33;6.93;;;3.30;;
80127;SDS011;69440;52.118;5.408;2023-05-01T13:54:03;8.13;;;3.47;;
80127;SDS011;69440;52.118;5.408;2023-05-01T13:56:29;8.32;;;3.40;;
80127;SDS011;69440;52.118;5.408;2023-05-01T13:59:00;7.13;;;3.13;;
80127;SDS011;69440;52.118;5.408;2023-05-01T14:01:27;7.82;;;3.15;;
80127;SDS011;69440;52.118;5.408;2023-05-01T14:03:54;6.97;;;3.30;;
80127;SDS011;69440;52.118;5.408;2023-05-01T14:06:22;4.53;;;2.92;;
80127;SDS011;69440;52.118;5.408;2023-05-01T14:08:54;5.97;;;3.63;;
80127;SDS011;69440;52.118;5.408;2023-05-01T14:11:23;7.82;;;3.28;;
80127;SDS011;69440;52.118;5.408;2023-05-01T14:13:49;7.00;;;2.97;;
80127;SDS011;69440;52.118;5.408;2023-05-01T14:16:23;5.35;;;3.08;;
80127;SDS011;69440;52.118;5.408;2023-05-01T14:18:55;5.50;;;3.17;;
80127;SDS011;69440;52.118;5.408;2023-05-01T14:21:25;6.53;;;3.78;;
80127;SDS011;69440;52.118;5.408;2023-05-01T14:23:55;8.55;;;3.95;;
80127;SDS011;69440;52.118;5.408;2023-05-01T14:26:22;9.27;;;3.35;;
80127;SDS011;69440;52.118;5.408;2023-05-01T14:28:49;6.43;;;3.30;;
80127;SDS011;69440;52.118;5.408;2023-05-01T14:31:26;4.97;;;3.40;;
80127;SDS011;69440;52.118;5.408;2023-05-01T14:33:55;5.65;;;3.13;;
80127;SDS011;69440;52.118;5.408;2023-05-01T14:36:29;6.05;;;2.78;;
80127;SDS011;69440;52.118;5.408;2023-05-01T14:38:59;6.47;;;2.70;;
80127;SDS011;69440;52.118;5.408;2023-05-01T14:41:27;5.28;;;2.97;;
80127;SDS011;69440;52.118;5.408;2023-05-01T14:43:55;6.13;;;2.95;;
80127;SDS011;69440;52.118;5.408;2023-05-01T14:46:28;4.50;;;3.08;;
80127;SDS011;69440;52.118;5.408;2023-05-01T14:48:56;5.53;;;2.75;;
80127;SDS011;69440;52.118;5.408;2023-05-01T14:51:23;4.47;;;2.75;;
80127;SDS011;69440;52.118;5.408;2023-05-01T14:53:50;4.32;;;2.60;;
80127;SDS011;69440;52.118;5.408;2023-05-01T14:56:17;5.72;;;2.92;;
80127;SDS011;69440;52.118;5.408;2023-05-01T14:58:43;4.78;;;2.83;;
80127;SDS011;69440;52.118;5.408;2023-05-01T15:01:10;5.97;;;2.90;;
80127;SDS011;69440;52.118;5.408;2023-05-01T15:03:36;6.30;;;3.25;;
80127;SDS011;69440;52.118;5.408;2023-05-01T15:06:06;5.57;;;2.65;;
80127;SDS011;69440;52.118;5.408;2023-05-01T15:08:34;4.72;;;3.10;;
80127;SDS011;69440;52.118;5.408;2023-05-01T15:11:01;5.75;;;3.22;;
80127;SDS011;69440;52.118;5.408;2023-05-01T15:13:27;5.50;;;3.00;;
80127;SDS011;69440;52.118;5.408;2023-05-01T15:15:54;5.88;;;2.78;;
80127;SDS011;69440;52.118;5.408;2023-05-01T15:18:21;4.38;;;3.00;;
80127;SDS011;69440;52.118;5.408;2023-05-01T15:20:48;5.80;;;2.97;;
80127;SDS011;69440;52.118;5.408;2023-05-01T15:23:14;6.38;;;3.95;;